sensor_id;sensor_type;location;lat;lon;timestamp;pressure;altitude;pressure_sealevel;temperature;humidity
74973;BME280;63529;56.320;43.990;2023-05-23T00:01:20;100525.69;;;18.59;36.87
74973;BME280;63529;56.320;43.990;2023-05-23T00:03:50;100530.56;;;18.57;36.70
74973;BME280;63529;56.320;43.990;2023-05-23T00:06:28;100517.84;;;18.57;36.76
74973;BME280;63529;56.320;43.990;2023-05-23T00:09:00;100528.97;;;18.56;36.63
74973;BME280;63529;56.320;43.990;2023-05-23T00:11:29;100528.97;;;18.56;36.68
74973;BME280;63529;56.320;43.990;2023-05-23T00:13:55;100528.47;;;18.54;36.76
74973;BME280;63529;56.320;43.990;2023-05-23T00:16:25;100531.50;;;18.52;36.81
74973;BME280;63529;56.320;43.990;2023-05-23T00:18:52;100532.06;;;18.49;36.87
74973;BME280;63529;56.320;43.990;2023-05-23T00:21:18;100522.66;;;18.47;36.95
74973;BME280;63529;56.320;43.990;2023-05-23T00:23:44;100532.69;;;18.46;36.95
74973;BME280;63529;56.320;43.990;2023-05-23T00:26:10;100534.06;;;18.43;37.12
74973;BME280;63529;56.320;43.990;2023-05-23T00:28:40;100532.75;;;18.41;37.26
74973;BME280;63529;56.320;43.990;2023-05-23T00:31:06;100527.94;;;18.38;37.20
74973;BME280;63529;56.320;43.990;2023-05-23T00:33:32;100526.31;;;18.37;37.26
74973;BME280;63529;56.320;43.990;2023-05-23T00:35:59;100519.31;;;18.36;37.35
74973;BME280;63529;56.320;43.990;2023-05-23T00:38:25;100529.13;;;18.32;37.48
74973;BME280;63529;56.320;43.990;2023-05-23T00:40:51;100530.22;;;18.31;37.38
74973;BME280;63529;56.320;43.990;2023-05-23T00:43:17;100531.63;;;18.28;37.44
74973;BME280;63529;56.320;43.990;2023-05-23T00:45:49;100528.13;;;18.28;37.29
74973;BME280;63529;56.320;43.990;2023-05-23T00:48:15;100532.72;;;18.27;37.28
74973;BME280;63529;56.320;43.990;2023-05-23T00:50:41;100529.50;;;18.25;37.36
74973;BME280;63529;56.320;43.990;2023-05-23T00:53:07;100524.38;;;18.24;37.25
74973;BME280;63529;56.320;43.990;2023-05-23T00:55:33;100530.59;;;18.24;37.39
74973;BME280;63529;56.320;43.990;2023-05-23T00:57:59;100526.59;;;18.22;37.41
74973;BME280;63529;56.320;43.990;2023-05-23T01:00:35;100526.09;;;18.20;37.55
74973;BME280;63529;56.320;43.990;2023-05-23T01:03:03;100527.97;;;18.19;37.69
74973;BME280;63529;56.320;43.990;2023-05-23T01:05:32;100525.28;;;18.19;37.69
74973;BME280;63529;56.320;43.990;2023-05-23T01:07:58;100524.47;;;18.18;37.76
74973;BME280;63529;56.320;43.990;2023-05-23T01:10:28;100527.16;;;18.18;37.84
74973;BME280;63529;56.320;43.990;2023-05-23T01:13:09;100526.59;;;18.22;37.84
74973;BME280;63529;56.320;43.990;2023-05-23T01:15:41;100521.69;;;18.24;37.83
74973;BME280;63529;56.320;43.990;2023-05-23T01:18:22;100528.13;;;18.28;37.96
74973;BME280;63529;56.320;43.990;2023-05-23T01:20:53;100519.94;;;18.33;37.84
74973;BME280;63529;56.320;43.990;2023-05-23T01:23:26;100518.75;;;18.39;37.85
74973;BME280;63529;56.320;43.990;2023-05-23T01:26:17;100521.88;;;18.46;37.70
74973;BME280;63529;56.320;43.990;2023-05-23T01:28:46;100522.28;;;18.53;37.48
74973;BME280;63529;56.320;43.990;2023-05-23T01:31:15;100524.91;;;18.58;37.39
74973;BME280;63529;56.320;43.990;2023-05-23T01:33:42;100526.94;;;18.66;37.33
74973;BME280;63529;56.320;43.990;2023-05-23T01:36:11;100520.31;;;18.73;37.22
74973;BME280;63529;56.320;43.990;2023-05-23T01:38:37;100512.63;;;18.80;37.10
74973;BME280;63529;56.320;43.990;2023-05-23T01:41:04;100519.53;;;18.86;37.11
74973;BME280;63529;56.320;43.990;2023-05-23T01:43:30;100517.53;;;18.91;37.05
74973;BME280;63529;56.320;43.990;2023-05-23T01:45:57;100516.91;;;19.08;36.87
74973;BME280;63529;56.320;43.990;2023-05-23T01:48:26;100517.69;;;19.36;36.39
74973;BME280;63529;56.320;43.990;2023-05-23T01:50:54;100511.03;;;19.56;36.11
74973;BME280;63529;56.320;43.990;2023-05-23T01:53:22;100515.03;;;19.72;35.79
74973;BME280;63529;56.320;43.990;2023-05-23T01:55:48;100510.22;;;19.92;35.43
74973;BME280;63529;56.320;43.990;2023-05-23T01:58:15;100519.53;;;20.22;34.77
74973;BME280;63529;56.320;43.990;2023-05-23T02:00:41;100525.53;;;20.64;34.26
74973;BME280;63529;56.320;43.990;2023-05-23T02:03:08;100518.84;;;21.18;33.54
74973;BME280;63529;56.320;43.990;2023-05-23T02:05:39;100517.53;;;21.73;32.48
74973;BME280;63529;56.320;43.990;2023-05-23T02:08:13;100519.59;;;22.02;32.12
74973;BME280;63529;56.320;43.990;2023-05-23T02:10:39;100511.75;;;22.09;31.78
74973;BME280;63529;56.320;43.990;2023-05-23T02:13:05;100510.66;;;21.92;31.89
74973;BME280;63529;56.320;43.990;2023-05-23T02:15:31;100519.13;;;21.65;32.52
74973;BME280;63529;56.320;43.990;2023-05-23T02:17:57;100516.38;;;21.56;32.52
74973;BME280;63529;56.320;43.990;2023-05-23T02:20:40;100535.41;;;21.48;32.54
74973;BME280;63529;56.320;43.990;2023-05-23T02:23:06;100515.88;;;21.28;32.91
74973;BME280;63529;56.320;43.990;2023-05-23T02:25:32;100521.97;;;21.34;33.05
74973;BME280;63529;56.320;43.990;2023-05-23T02:27:57;100521.03;;;21.64;32.58
74973;BME280;63529;56.320;43.990;2023-05-23T02:30:23;100526.31;;;21.78;32.27
74973;BME280;63529;56.320;43.990;2023-05-23T02:32:49;100530.13;;;21.77;32.29
74973;BME280;63529;56.320;43.990;2023-05-23T02:35:16;100537.81;;;21.75;32.37
74973;BME280;63529;56.320;43.990;2023-05-23T02:37:42;100537.00;;;22.01;32.21
74973;BME280;63529;56.320;43.990;2023-05-23T02:40:08;100524.56;;;22.17;31.78
74973;BME280;63529;56.320;43.990;2023-05-23T02:42:35;100539.06;;;22.38;31.57
74973;BME280;63529;56.320;43.990;2023-05-23T02:45:01;100538.78;;;22.23;31.74
74973;BME280;63529;56.320;43.990;2023-05-23T02:47:29;100544.38;;;21.91;32.09
74973;BME280;63529;56.320;43.990;2023-05-23T02:49:55;100533.19;;;21.67;32.67
74973;BME280;63529;56.320;43.990;2023-05-23T02:52:20;100541.50;;;21.53;32.75
74973;BME280;63529;56.320;43.990;2023-05-23T02:54:46;100537.19;;;21.52;32.76
74973;BME280;63529;56.320;43.990;2023-05-23T02:57:12;100533.84;;;21.73;32.37
74973;BME280;63529;56.320;43.990;2023-05-23T02:59:39;100540.72;;;22.69;31.05
74973;BME280;63529;56.320;43.990;2023-05-23T03:02:06;100532.53;;;24.08;29.29
74973;BME280;63529;56.320;43.990;2023-05-23T03:04:32;100535.88;;;25.97;26.66
74973;BME280;63529;56.320;43.990;2023-05-23T03:06:58;100523.56;;;27.65;24.65
74973;BME280;63529;56.320;43.990;2023-05-23T03:09:24;100534.91;;;28.21;23.90
74973;BME280;63529;56.320;43.990;2023-05-23T03:11:51;100541.72;;;27.69;24.28
74973;BME280;63529;56.320;43.990;2023-05-23T03:14:17;100537.34;;;26.82;25.02
74973;BME280;63529;56.320;43.990;2023-05-23T03:16:43;100535.41;;;25.95;26.06
74973;BME280;63529;56.320;43.990;2023-05-23T03:19:09;100530.69;;;25.27;26.67
74973;BME280;63529;56.320;43.990;2023-05-23T03:21:35;100534.66;;;24.81;27.44
74973;BME280;63529;56.320;43.990;2023-05-23T03:24:01;100520.28;;;24.47;27.83
74973;BME280;63529;56.320;43.990;2023-05-23T03:26:28;100535.91;;;24.26;28.11
74973;BME280;63529;56.320;43.990;2023-05-23T03:28:55;100532.66;;;24.12;28.61
74973;BME280;63529;56.320;43.990;2023-05-23T03:31:21;100533.41;;;24.00;28.87
74973;BME280;63529;56.320;43.990;2023-05-23T03:33:47;100533.97;;;23.93;28.97
74973;BME280;63529;56.320;43.990;2023-05-23T03:36:13;100528.22;;;23.86;29.30
74973;BME280;63529;56.320;43.990;2023-05-23T03:38:38;100535.94;;;23.84;29.39
74973;BME280;63529;56.320;43.990;2023-05-23T03:41:05;100527.66;;;23.80;29.32
74973;BME280;63529;56.320;43.990;2023-05-23T03:43:31;100530.84;;;23.82;29.56
74973;BME280;63529;56.320;43.990;2023-05-23T03:45:58;100520.19;;;23.90;29.55
74973;BME280;63529;56.320;43.990;2023-05-23T03:48:24;100523.31;;;24.00;29.38
74973;BME280;63529;56.320;43.990;2023-05-23T03:50:50;100536.31;;;24.16;29.16
74973;BME280;63529;56.320;43.990;2023-05-23T03:53:17;100541.59;;;24.33;28.94
74973;BME280;63529;56.320;43.990;2023-05-23T03:55:42;100525.41;;;24.49;28.82
74973;BME280;63529;56.320;43.990;2023-05-23T03:58:08;100526.78;;;24.67;28.72
74973;BME280;63529;56.320;43.990;2023-05-23T04:00:34;100528.97;;;24.86;28.49
74973;BME280;63529;56.320;43.990;2023-05-23T04:03:03;100535.84;;;25.04;28.49
74973;BME280;63529;56.320;43.990;2023-05-23T04:05:29;100526.72;;;25.25;28.26
74973;BME280;63529;56.320;43.990;2023-05-23T04:07:55;100532.09;;;25.49;27.89
74973;BME280;63529;56.320;43.990;2023-05-23T04:10:22;100524.44;;;25.79;27.55
74973;BME280;63529;56.320;43.990;2023-05-23T04:12:48;100527.56;;;26.21;26.72
74973;BME280;63529;56.320;43.990;2023-05-23T04:15:16;100530.53;;;26.76;25.94
74973;BME280;63529;56.320;43.990;2023-05-23T04:17:52;100536.28;;;27.53;25.47
74973;BME280;63529;56.320;43.990;2023-05-23T04:20:18;100527.63;;;28.75;24.15
74973;BME280;63529;56.320;43.990;2023-05-23T04:22:44;100527.63;;;30.18;22.61
74973;BME280;63529;56.320;43.990;2023-05-23T04:25:10;100527.47;;;31.40;21.32
74973;BME280;63529;56.320;43.990;2023-05-23T04:27:44;100531.34;;;32.33;20.31
74973;BME280;63529;56.320;43.990;2023-05-23T04:30:10;100522.66;;;33.20;19.82
74973;BME280;63529;56.320;43.990;2023-05-23T04:32:38;100523.94;;;34.04;18.99
74973;BME280;63529;56.320;43.990;2023-05-23T04:35:05;100532.84;;;34.33;18.85
74973;BME280;63529;56.320;43.990;2023-05-23T04:37:32;100532.22;;;34.66;18.28
74973;BME280;63529;56.320;43.990;2023-05-23T04:39:58;100535.94;;;34.97;17.98
74973;BME280;63529;56.320;43.990;2023-05-23T04:43:02;100531.06;;;35.46;17.54
74973;BME280;63529;56.320;43.990;2023-05-23T04:45:43;100539.75;;;36.13;16.95
74973;BME280;63529;56.320;43.990;2023-05-23T04:48:33;100530.78;;;37.42;15.88
74973;BME280;63529;56.320;43.990;2023-05-23T04:51:01;100531.13;;;38.53;15.39
74973;BME280;63529;56.320;43.990;2023-05-23T04:53:31;100534.84;;;39.41;14.42
74973;BME280;63529;56.320;43.990;2023-05-23T04:55:57;100532.94;;;40.30;14.11
74973;BME280;63529;56.320;43.990;2023-05-23T04:58:24;100527.16;;;41.41;13.22
74973;BME280;63529;56.320;43.990;2023-05-23T05:00:53;100535.84;;;42.37;12.39
74973;BME280;63529;56.320;43.990;2023-05-23T05:03:19;100532.47;;;43.52;11.74
74973;BME280;63529;56.320;43.990;2023-05-23T05:05:46;100531.63;;;44.69;10.93
74973;BME280;63529;56.320;43.990;2023-05-23T05:08:13;100537.59;;;45.69;10.38
74973;BME280;63529;56.320;43.990;2023-05-23T05:10:39;100536.25;;;46.49;9.89
74973;BME280;63529;56.320;43.990;2023-05-23T05:13:06;100532.03;;;47.06;9.47
74973;BME280;63529;56.320;43.990;2023-05-23T05:15:42;100531.25;;;47.05;9.55
74973;BME280;63529;56.320;43.990;2023-05-23T05:18:08;100525.78;;;46.76;9.70
74973;BME280;63529;56.320;43.990;2023-05-23T05:20:33;100534.75;;;45.84;9.99
74973;BME280;63529;56.320;43.990;2023-05-23T05:23:00;100530.38;;;45.09;9.94
74973;BME280;63529;56.320;43.990;2023-05-23T05:25:27;100526.06;;;44.60;10.31
74973;BME280;63529;56.320;43.990;2023-05-23T05:28:05;100522.25;;;44.39;10.69
74973;BME280;63529;56.320;43.990;2023-05-23T05:30:34;100528.16;;;44.74;10.43
74973;BME280;63529;56.320;43.990;2023-05-23T05:33:01;100533.69;;;45.52;9.73
74973;BME280;63529;56.320;43.990;2023-05-23T05:35:33;100529.75;;;46.08;9.62
74973;BME280;63529;56.320;43.990;2023-05-23T05:37:59;100527.38;;;46.57;9.16
74973;BME280;63529;56.320;43.990;2023-05-23T05:40:26;100522.19;;;45.99;9.46
74973;BME280;63529;56.320;43.990;2023-05-23T05:42:51;100519.59;;;45.22;10.20
74973;BME280;63529;56.320;43.990;2023-05-23T05:45:17;100516.94;;;44.65;10.51
74973;BME280;63529;56.320;43.990;2023-05-23T05:47:45;100520.28;;;45.76;10.14
74973;BME280;63529;56.320;43.990;2023-05-23T05:50:11;100512.44;;;47.23;9.66
74973;BME280;63529;56.320;43.990;2023-05-23T05:52:37;100521.56;;;47.38;8.78
74973;BME280;63529;56.320;43.990;2023-05-23T05:55:05;100520.31;;;45.96;9.69
74973;BME280;63529;56.320;43.990;2023-05-23T05:57:32;100521.19;;;45.53;9.91
74973;BME280;63529;56.320;43.990;2023-05-23T05:59:59;100526.91;;;45.43;9.86
74973;BME280;63529;56.320;43.990;2023-05-23T06:02:26;100524.53;;;45.12;10.13
74973;BME280;63529;56.320;43.990;2023-05-23T06:04:51;100517.22;;;45.06;10.31
74973;BME280;63529;56.320;43.990;2023-05-23T06:07:17;100524.13;;;44.42;10.87
74973;BME280;63529;56.320;43.990;2023-05-23T06:09:44;100517.59;;;43.70;11.16
74973;BME280;63529;56.320;43.990;2023-05-23T06:12:10;100518.13;;;42.95;11.33
74973;BME280;63529;56.320;43.990;2023-05-23T06:14:36;100516.38;;;42.51;11.67
74973;BME280;63529;56.320;43.990;2023-05-23T06:17:02;100517.19;;;43.44;11.21
74973;BME280;63529;56.320;43.990;2023-05-23T06:19:28;100513.38;;;44.79;10.75
74973;BME280;63529;56.320;43.990;2023-05-23T06:21:55;100511.13;;;46.51;9.70
74973;BME280;63529;56.320;43.990;2023-05-23T06:24:21;100504.84;;;48.03;9.12
74973;BME280;63529;56.320;43.990;2023-05-23T06:26:47;100508.03;;;48.93;8.85
74973;BME280;63529;56.320;43.990;2023-05-23T06:29:13;100506.03;;;49.33;8.13
74973;BME280;63529;56.320;43.990;2023-05-23T06:31:39;100503.47;;;49.63;7.92
74973;BME280;63529;56.320;43.990;2023-05-23T06:34:05;100512.00;;;49.52;8.04
74973;BME280;63529;56.320;43.990;2023-05-23T06:36:30;100510.69;;;49.53;8.18
74973;BME280;63529;56.320;43.990;2023-05-23T06:38:56;100508.88;;;49.55;7.98
74973;BME280;63529;56.320;43.990;2023-05-23T06:41:22;100502.16;;;49.13;8.24
74973;BME280;63529;56.320;43.990;2023-05-23T06:43:52;100503.88;;;48.72;8.53
74973;BME280;63529;56.320;43.990;2023-05-23T06:46:22;100503.09;;;48.71;8.83
74973;BME280;63529;56.320;43.990;2023-05-23T06:48:48;100492.56;;;48.83;8.74
74973;BME280;63529;56.320;43.990;2023-05-23T06:51:14;100497.22;;;48.91;8.75
74973;BME280;63529;56.320;43.990;2023-05-23T06:53:41;100495.44;;;49.16;8.36
74973;BME280;63529;56.320;43.990;2023-05-23T06:56:07;100495.75;;;49.47;8.30
74973;BME280;63529;56.320;43.990;2023-05-23T06:58:41;100496.22;;;49.62;8.16
74973;BME280;63529;56.320;43.990;2023-05-23T07:01:07;100495.19;;;49.70;8.37
74973;BME280;63529;56.320;43.990;2023-05-23T07:03:37;100497.56;;;49.44;8.57
74973;BME280;63529;56.320;43.990;2023-05-23T07:06:07;100496.25;;;49.11;8.31
74973;BME280;63529;56.320;43.990;2023-05-23T07:08:33;100499.06;;;49.11;8.74
74973;BME280;63529;56.320;43.990;2023-05-23T07:11:00;100499.06;;;49.06;8.74
74973;BME280;63529;56.320;43.990;2023-05-23T07:13:37;100495.44;;;49.22;8.68
74973;BME280;63529;56.320;43.990;2023-05-23T07:16:03;100495.94;;;49.88;8.67
74973;BME280;63529;56.320;43.990;2023-05-23T07:18:33;100504.66;;;50.82;7.89
74973;BME280;63529;56.320;43.990;2023-05-23T07:20:59;100500.16;;;51.33;7.80
74973;BME280;63529;56.320;43.990;2023-05-23T07:23:25;100496.22;;;51.66;7.27
74973;BME280;63529;56.320;43.990;2023-05-23T07:25:51;100495.19;;;52.13;7.29
74973;BME280;63529;56.320;43.990;2023-05-23T07:28:24;100494.94;;;52.35;7.17
74973;BME280;63529;56.320;43.990;2023-05-23T07:30:51;100502.41;;;52.38;7.31
74973;BME280;63529;56.320;43.990;2023-05-23T07:33:19;100505.13;;;52.30;7.38
74973;BME280;63529;56.320;43.990;2023-05-23T07:35:47;100494.84;;;52.22;7.33
74973;BME280;63529;56.320;43.990;2023-05-23T07:38:13;100485.84;;;52.18;7.56
74973;BME280;63529;56.320;43.990;2023-05-23T07:40:39;100488.31;;;52.46;7.75
74973;BME280;63529;56.320;43.990;2023-05-23T07:43:05;100497.59;;;52.90;7.28
74973;BME280;63529;56.320;43.990;2023-05-23T07:45:31;100499.09;;;53.55;7.57
74973;BME280;63529;56.320;43.990;2023-05-23T07:47:58;100494.19;;;54.22;6.52
74973;BME280;63529;56.320;43.990;2023-05-23T07:50:25;100494.72;;;54.67;6.41
74973;BME280;63529;56.320;43.990;2023-05-23T07:52:53;100495.28;;;54.66;6.44
74973;BME280;63529;56.320;43.990;2023-05-23T07:55:26;100491.84;;;55.02;5.99
74973;BME280;63529;56.320;43.990;2023-05-23T07:57:54;100481.34;;;55.04;5.89
74973;BME280;63529;56.320;43.990;2023-05-23T08:00:22;100481.69;;;54.59;6.30
74973;BME280;63529;56.320;43.990;2023-05-23T08:02:54;100479.25;;;54.02;6.38
74973;BME280;63529;56.320;43.990;2023-05-23T08:05:26;100486.72;;;53.33;6.21
74973;BME280;63529;56.320;43.990;2023-05-23T08:07:55;100471.38;;;53.36;6.82
74973;BME280;63529;56.320;43.990;2023-05-23T08:10:21;100472.66;;;53.67;6.42
74973;BME280;63529;56.320;43.990;2023-05-23T08:12:47;100465.72;;;53.89;6.26
74973;BME280;63529;56.320;43.990;2023-05-23T08:15:16;100469.31;;;54.30;6.66
74973;BME280;63529;56.320;43.990;2023-05-23T08:17:50;100463.00;;;54.44;6.48
74973;BME280;63529;56.320;43.990;2023-05-23T08:20:16;100464.16;;;54.28;6.18
74973;BME280;63529;56.320;43.990;2023-05-23T08:22:44;100460.88;;;53.58;6.36
74973;BME280;63529;56.320;43.990;2023-05-23T08:25:10;100451.19;;;52.70;6.35
74973;BME280;63529;56.320;43.990;2023-05-23T08:27:39;100454.97;;;51.97;6.75
74973;BME280;63529;56.320;43.990;2023-05-23T08:30:20;100449.06;;;51.46;6.88
74973;BME280;63529;56.320;43.990;2023-05-23T08:32:49;100452.00;;;51.35;6.94
74973;BME280;63529;56.320;43.990;2023-05-23T08:35:15;100442.97;;;51.31;7.28
74973;BME280;63529;56.320;43.990;2023-05-23T08:37:41;100442.97;;;51.31;7.08
74973;BME280;63529;56.320;43.990;2023-05-23T08:40:17;100434.69;;;51.33;7.16
74973;BME280;63529;56.320;43.990;2023-05-23T08:42:48;100432.88;;;51.60;7.32
74973;BME280;63529;56.320;43.990;2023-05-23T08:45:15;100424.88;;;51.77;6.90
74973;BME280;63529;56.320;43.990;2023-05-23T08:47:43;100441.09;;;51.64;6.60
74973;BME280;63529;56.320;43.990;2023-05-23T08:50:12;100439.94;;;51.23;6.82
74973;BME280;63529;56.320;43.990;2023-05-23T08:52:54;100426.91;;;51.03;6.68
74973;BME280;63529;56.320;43.990;2023-05-23T08:55:26;100420.31;;;50.90;6.93
74973;BME280;63529;56.320;43.990;2023-05-23T08:57:53;100425.94;;;50.95;6.96
74973;BME280;63529;56.320;43.990;2023-05-23T09:00:46;100413.09;;;48.49;7.43
74973;BME280;63529;56.320;43.990;2023-05-23T09:03:13;100420.63;;;45.70;8.68
74973;BME280;63529;56.320;43.990;2023-05-23T09:06:11;100421.22;;;42.90;9.81
74973;BME280;63529;56.320;43.990;2023-05-23T09:08:38;100419.34;;;41.11;10.72
74973;BME280;63529;56.320;43.990;2023-05-23T09:11:05;100402.00;;;39.78;12.06
74973;BME280;63529;56.320;43.990;2023-05-23T09:13:35;100420.81;;;38.81;12.28
74973;BME280;63529;56.320;43.990;2023-05-23T09:16:07;100404.75;;;38.07;12.22
74973;BME280;63529;56.320;43.990;2023-05-23T09:18:43;100396.34;;;37.58;12.81
74973;BME280;63529;56.320;43.990;2023-05-23T09:21:12;100397.63;;;37.17;12.43
74973;BME280;63529;56.320;43.990;2023-05-23T09:23:47;100419.31;;;36.66;12.19
74973;BME280;63529;56.320;43.990;2023-05-23T09:26:13;100420.31;;;36.06;12.77
74973;BME280;63529;56.320;43.990;2023-05-23T09:28:41;100409.09;;;35.59;13.45
74973;BME280;63529;56.320;43.990;2023-05-23T09:31:08;100408.91;;;35.12;13.81
74973;BME280;63529;56.320;43.990;2023-05-23T09:33:45;100410.63;;;34.61;14.49
74973;BME280;63529;56.320;43.990;2023-05-23T09:36:12;100391.28;;;34.09;14.18
74973;BME280;63529;56.320;43.990;2023-05-23T09:38:39;100391.91;;;33.75;14.85
74973;BME280;63529;56.320;43.990;2023-05-23T09:41:06;100388.50;;;33.54;14.98
74973;BME280;63529;56.320;43.990;2023-05-23T09:43:33;100385.41;;;33.41;15.30
74973;BME280;63529;56.320;43.990;2023-05-23T09:46:10;100387.41;;;33.30;15.67
74973;BME280;63529;56.320;43.990;2023-05-23T09:48:38;100397.44;;;32.95;15.79
74973;BME280;63529;56.320;43.990;2023-05-23T09:51:29;100386.44;;;32.70;15.97
74973;BME280;63529;56.320;43.990;2023-05-23T09:54:09;100387.63;;;32.65;16.37
74973;BME280;63529;56.320;43.990;2023-05-23T09:56:45;100413.31;;;32.55;16.35
74973;BME280;63529;56.320;43.990;2023-05-23T09:59:12;100397.94;;;32.51;16.46
74973;BME280;63529;56.320;43.990;2023-05-23T10:01:43;100384.88;;;32.51;16.00
74973;BME280;63529;56.320;43.990;2023-05-23T10:04:30;100379.38;;;32.55;16.47
74973;BME280;63529;56.320;43.990;2023-05-23T10:07:20;100380.50;;;32.64;16.56
74973;BME280;63529;56.320;43.990;2023-05-23T10:09:55;100380.47;;;32.82;16.58
74973;BME280;63529;56.320;43.990;2023-05-23T10:12:46;100379.22;;;33.05;16.54
74973;BME280;63529;56.320;43.990;2023-05-23T10:15:16;100378.81;;;33.13;16.62
74973;BME280;63529;56.320;43.990;2023-05-23T10:20:15;100390.28;;;33.05;16.58
74973;BME280;63529;56.320;43.990;2023-05-23T10:22:41;100378.47;;;32.97;16.60
74973;BME280;63529;56.320;43.990;2023-05-23T10:25:08;100374.16;;;32.89;16.87
74973;BME280;63529;56.320;43.990;2023-05-23T10:27:38;100374.19;;;32.75;16.94
74973;BME280;63529;56.320;43.990;2023-05-23T10:30:06;100363.19;;;32.50;17.16
74973;BME280;63529;56.320;43.990;2023-05-23T10:32:33;100369.53;;;32.22;17.38
74973;BME280;63529;56.320;43.990;2023-05-23T10:37:44;100375.84;;;32.15;17.49
74973;BME280;63529;56.320;43.990;2023-05-23T10:40:56;100365.56;;;32.16;16.71
74973;BME280;63529;56.320;43.990;2023-05-23T10:45:58;100361.63;;;32.02;16.29
74973;BME280;63529;56.320;43.990;2023-05-23T10:51:06;100370.69;;;31.92;15.60
74973;BME280;63529;56.320;43.990;2023-05-23T10:53:41;100358.06;;;31.91;15.20
74973;BME280;63529;56.320;43.990;2023-05-23T10:56:08;100373.06;;;31.97;15.33
74973;BME280;63529;56.320;43.990;2023-05-23T10:58:37;100369.13;;;32.09;15.03
74973;BME280;63529;56.320;43.990;2023-05-23T11:01:08;100367.53;;;32.04;14.93
74973;BME280;63529;56.320;43.990;2023-05-23T11:09:11;100352.09;;;31.60;15.31
74973;BME280;63529;56.320;43.990;2023-05-23T11:14:33;100352.44;;;31.30;15.41
74973;BME280;63529;56.320;43.990;2023-05-23T11:17:36;100357.84;;;31.13;15.62
74973;BME280;63529;56.320;43.990;2023-05-23T11:20:36;100358.19;;;30.93;15.68
74973;BME280;63529;56.320;43.990;2023-05-23T11:23:14;100349.88;;;30.90;16.06
74973;BME280;63529;56.320;43.990;2023-05-23T11:25:41;100347.13;;;30.90;16.19
74973;BME280;63529;56.320;43.990;2023-05-23T11:28:09;100343.19;;;30.91;16.05
74973;BME280;63529;56.320;43.990;2023-05-23T11:30:36;100333.72;;;30.88;16.59
74973;BME280;63529;56.320;43.990;2023-05-23T11:33:10;100331.78;;;30.92;16.52
74973;BME280;63529;56.320;43.990;2023-05-23T11:35:46;100327.91;;;31.04;16.55
74973;BME280;63529;56.320;43.990;2023-05-23T11:38:14;100346.03;;;31.16;16.64
74973;BME280;63529;56.320;43.990;2023-05-23T11:40:43;100337.00;;;31.19;16.60
74973;BME280;63529;56.320;43.990;2023-05-23T11:43:12;100335.41;;;31.21;16.41
74973;BME280;63529;56.320;43.990;2023-05-23T11:45:39;100342.59;;;31.33;16.50
74973;BME280;63529;56.320;43.990;2023-05-23T11:48:16;100332.34;;;31.48;16.86
74973;BME280;63529;56.320;43.990;2023-05-23T11:50:45;100328.03;;;31.57;16.22
74973;BME280;63529;56.320;43.990;2023-05-23T11:53:13;100343.44;;;31.66;16.47
74973;BME280;63529;56.320;43.990;2023-05-23T11:55:51;100320.56;;;31.72;16.33
74973;BME280;63529;56.320;43.990;2023-05-23T11:58:21;100323.72;;;31.71;16.58
74973;BME280;63529;56.320;43.990;2023-05-23T12:00:47;100333.56;;;31.57;16.62
74973;BME280;63529;56.320;43.990;2023-05-23T12:03:13;100313.41;;;31.36;16.56
74973;BME280;63529;56.320;43.990;2023-05-23T12:05:42;100309.78;;;31.14;16.77
74973;BME280;63529;56.320;43.990;2023-05-23T12:08:10;100312.47;;;30.92;16.86
74973;BME280;63529;56.320;43.990;2023-05-23T12:10:48;100306.06;;;30.70;17.28
74973;BME280;63529;56.320;43.990;2023-05-23T12:13:14;100310.75;;;30.66;17.41
74973;BME280;63529;56.320;43.990;2023-05-23T12:15:40;100301.34;;;30.67;17.38
74973;BME280;63529;56.320;43.990;2023-05-23T12:18:06;100307.66;;;30.68;17.76
74973;BME280;63529;56.320;43.990;2023-05-23T12:20:32;100312.38;;;30.71;17.72
74973;BME280;63529;56.320;43.990;2023-05-23T12:23:03;100299.41;;;30.71;18.00
74973;BME280;63529;56.320;43.990;2023-05-23T12:25:38;100310.00;;;30.69;18.00
74973;BME280;63529;56.320;43.990;2023-05-23T12:28:05;100305.31;;;30.73;18.31
74973;BME280;63529;56.320;43.990;2023-05-23T12:30:43;100300.59;;;30.74;17.98
74973;BME280;63529;56.320;43.990;2023-05-23T12:33:24;100309.22;;;30.69;17.86
74973;BME280;63529;56.320;43.990;2023-05-23T12:35:50;100299.72;;;30.63;18.05
74973;BME280;63529;56.320;43.990;2023-05-23T12:38:17;100295.78;;;30.60;18.25
74973;BME280;63529;56.320;43.990;2023-05-23T12:40:44;100298.09;;;30.54;18.40
74973;BME280;63529;56.320;43.990;2023-05-23T12:43:10;100309.09;;;30.47;18.68
74973;BME280;63529;56.320;43.990;2023-05-23T12:45:36;100299.56;;;30.38;18.27
74973;BME280;63529;56.320;43.990;2023-05-23T12:48:03;100288.56;;;30.34;18.73
74973;BME280;63529;56.320;43.990;2023-05-23T12:50:29;100294.47;;;30.33;18.63
74973;BME280;63529;56.320;43.990;2023-05-23T12:52:55;100271.59;;;30.29;18.67
74973;BME280;63529;56.320;43.990;2023-05-23T12:55:21;100270.78;;;30.24;18.94
74973;BME280;63529;56.320;43.990;2023-05-23T12:57:47;100279.81;;;30.21;18.89
74973;BME280;63529;56.320;43.990;2023-05-23T13:00:13;100285.69;;;30.16;19.00
74973;BME280;63529;56.320;43.990;2023-05-23T13:02:39;100278.81;;;29.96;19.02
74973;BME280;63529;56.320;43.990;2023-05-23T13:05:06;100277.19;;;29.88;19.25
74973;BME280;63529;56.320;43.990;2023-05-23T13:07:32;100274.75;;;29.79;19.27
74973;BME280;63529;56.320;43.990;2023-05-23T13:09:57;100277.78;;;29.63;19.26
74973;BME280;63529;56.320;43.990;2023-05-23T13:12:23;100278.38;;;29.46;19.56